Time;durP1;ratioP1;P1;durP2;ratioP2;P2;SDS_P1;SDS_P2;PMS_P1;PMS_P2;Temp;Humidity;BMP_temperature;BMP_pressure;BME280_temperature;BME280_humidity;BME280_pressure;Samples;Min_cycle;Max_cycle;Signal;HPM_P1;HPM_P2
2021/03/22 00:03:54;;;;;;;16.20;10.80;;;;;;;3.13;65.07;98414.37;252254;1153;114808;-78
2021/03/22 00:08:58;;;;;;;19.13;11.65;;;;;;;3.21;65.17;98413.11;252138;1146;114838;-77
2021/03/22 00:14:00;;;;;;;16.07;11.50;;;;;;;3.28;65.19;98426.85;252193;1153;115432;-78
2021/03/22 00:19:03;;;;;;;15.97;11.33;;;;;;;3.36;65.05;98422.11;252187;1145;114801;-77
2021/03/22 00:24:06;;;;;;;16.93;11.85;;;;;;;3.36;65.25;98421.26;252214;1152;114821;-78
2021/03/22 00:29:08;;;;;;;19.47;12.07;;;;;;;3.38;64.92;98435.20;252196;1145;114762;-81
2021/03/22 00:34:11;;;;;;;17.78;12.03;;;;;;;3.36;65.05;98431.78;252295;1153;114998;-82
2021/03/22 00:39:14;;;;;;;19.20;11.78;;;;;;;3.38;64.97;98438.69;251997;1145;114773;-81
2021/03/22 00:44:16;;;;;;;16.77;11.43;;;;;;;3.38;64.96;98430.80;252221;1153;115012;-81
2021/03/22 00:49:19;;;;;;;16.73;10.90;;;;;;;3.34;64.81;98436.27;252091;1146;114910;-82
2021/03/22 00:54:21;;;;;;;17.90;10.47;;;;;;;3.38;64.95;98441.32;252203;1153;115111;-81
2021/03/22 00:59:24;;;;;;;15.07;10.20;;;;;;;3.46;65.23;98438.35;252184;1146;114734;-81
2021/03/22 01:04:26;;;;;;;17.17;10.13;;;;;;;3.49;64.58;98444.34;252165;1153;115452;-81
2021/03/22 01:09:28;;;;;;;18.80;10.03;;;;;;;3.52;64.67;98438.09;252214;1146;115205;-81
2021/03/22 01:14:30;;;;;;;14.33;8.45;;;;;;;3.51;64.45;98446.92;252236;1153;115340;-81
2021/03/22 01:19:33;;;;;;;14.40;8.50;;;;;;;3.49;64.13;98446.97;252245;1146;114271;-81
2021/03/22 01:24:35;;;;;;;14.58;9.20;;;;;;;3.47;64.23;98450.61;252239;1152;114935;-81
2021/03/22 01:29:41;;;;;;;17.93;9.30;;;;;;;3.44;64.25;98451.58;252173;1146;114402;-81
2021/03/22 01:34:44;;;;;;;14.00;8.28;;;;;;;3.44;64.09;98458.63;250177;1153;114925;-82
2021/03/22 01:39:46;;;;;;;13.38;8.50;;;;;;;3.43;63.91;98465.66;252227;1146;114499;-82
2021/03/22 01:44:58;;;;;;;14.35;8.08;;;;;;;3.42;63.94;98477.08;252187;1152;114857;-82
2021/03/22 01:50:06;;;;;;;15.53;8.58;;;;;;;3.40;63.90;98480.72;252376;1144;114538;-83
2021/03/22 01:55:12;;;;;;;13.43;8.58;;;;;;;3.38;63.87;98477.29;252555;1151;114639;-84
2021/03/22 02:00:14;;;;;;;16.23;9.20;;;;;;;3.40;63.92;98478.94;252540;1144;114646;-83
2021/03/22 02:05:23;;;;;;;14.10;9.00;;;;;;;3.44;63.90;98475.26;251508;1151;114626;-84
2021/03/22 02:10:26;;;;;;;12.25;9.20;;;;;;;3.44;63.97;98488.41;251967;1144;116183;-83
2021/03/22 02:15:29;;;;;;;14.65;8.70;;;;;;;3.49;63.59;98482.94;252304;1152;114671;-84
2021/03/22 02:20:52;;;;;;;11.57;7.93;;;;;;;3.43;63.41;98485.83;252373;1144;114606;-84
2021/03/22 02:26:00;;;;;;;14.10;7.93;;;;;;;3.43;63.48;98485.83;252590;1151;114854;-84
2021/03/22 02:31:21;;;;;;;12.35;6.80;;;;;;;3.37;63.15;98486.95;251682;1144;114579;-83
2021/03/22 02:36:48;;;;;;;10.50;6.03;;;;;;;3.35;63.38;98493.19;250594;1144;114451;-85
2021/03/22 02:41:57;;;;;;;8.90;6.15;;;;;;;3.35;63.19;98499.30;246753;1151;114574;-86
2021/03/22 02:47:09;;;;;;;7.78;5.43;;;;;;;3.29;63.02;98507.44;252431;1151;114362;-83
2021/03/22 02:52:45;;;;;;;9.83;5.47;;;;;;;3.24;62.78;98510.27;252787;1144;114406;-83
2021/03/22 02:58:12;;;;;;;10.55;5.45;;;;;;;3.18;62.65;98520.17;252382;1151;114378;-82
2021/03/22 03:03:20;;;;;;;8.75;4.63;;;;;;;3.18;62.57;98535.95;252574;1144;114840;-81
2021/03/22 03:08:37;;;;;;;8.93;5.18;;;;;;;3.08;62.20;98541.56;252281;1152;114077;-82
2021/03/22 03:13:40;;;;;;;9.40;5.35;;;;;;;3.06;62.05;98547.83;252249;1147;114389;-82
2021/03/22 03:18:42;;;;;;;7.70;4.10;;;;;;;3.00;61.66;98556.80;252584;1151;114016;-82
2021/03/22 03:23:45;;;;;;;7.40;4.03;;;;;;;2.96;61.61;98557.84;252598;1146;115664;-82
2021/03/22 03:28:47;;;;;;;7.63;3.95;;;;;;;2.92;61.37;98558.88;252603;1151;114445;-82
2021/03/22 03:33:49;;;;;;;8.05;4.35;;;;;;;2.88;61.29;98565.14;252286;1144;114507;-82
2021/03/22 03:38:52;;;;;;;6.73;4.13;;;;;;;2.86;61.37;98576.66;252123;1152;114386;-81
2021/03/22 03:43:55;;;;;;;8.48;4.43;;;;;;;2.84;61.24;98581.95;252614;1146;114323;-82
2021/03/22 03:48:57;;;;;;;10.13;5.38;;;;;;;2.83;61.24;98586.36;251688;1151;114303;-84
2021/03/22 03:54:00;;;;;;;8.20;4.60;;;;;;;2.83;61.31;98588.98;250123;1151;114493;-79
2021/03/22 03:59:03;;;;;;;7.50;4.28;;;;;;;2.81;61.24;98596.05;252579;1151;114981;-79
2021/03/22 04:04:06;;;;;;;8.83;4.73;;;;;;;2.79;61.15;98600.53;252217;1147;114130;-79
2021/03/22 04:09:14;;;;;;;7.10;4.18;;;;;;;2.78;61.01;98603.20;249856;1152;114347;-80
2021/03/22 04:14:26;;;;;;;10.50;4.70;;;;;;;2.75;60.84;98605.94;252575;1146;114197;-79
2021/03/22 04:19:29;;;;;;;5.73;3.67;;;;;;;2.75;60.84;98614.70;251353;1144;114641;-80
2021/03/22 04:24:31;;;;;;;6.70;4.00;;;;;;;2.75;60.71;98624.33;250155;1151;114313;-82
2021/03/22 04:29:34;;;;;;;7.53;4.73;;;;;;;2.73;60.72;98628.80;252307;1152;114376;-80
2021/03/22 04:34:37;;;;;;;8.98;5.55;;;;;;;2.73;60.67;98632.28;252632;1146;114312;-81
2021/03/22 04:39:39;;;;;;;12.28;5.18;;;;;;;2.72;60.30;98637.61;252415;1144;114187;-83
2021/03/22 04:44:41;;;;;;;10.75;5.58;;;;;;;2.68;60.67;98636.83;252536;1146;114553;-83
2021/03/22 04:49:44;;;;;;;10.13;5.53;;;;;;;2.68;60.70;98646.48;252594;1151;114144;-83
2021/03/22 04:54:46;;;;;;;11.30;5.50;;;;;;;2.71;60.88;98652.48;252618;1145;114164;-82
2021/03/22 04:59:49;;;;;;;9.23;5.68;;;;;;;2.69;60.83;98658.73;252493;1151;114582;-83
2021/03/22 05:04:51;;;;;;;9.78;5.90;;;;;;;2.69;60.95;98661.36;252577;1144;114424;-82
2021/03/22 05:09:54;;;;;;;10.08;5.90;;;;;;;2.69;60.91;98667.47;252659;1151;114478;-83
2021/03/22 05:14:56;;;;;;;12.45;6.60;;;;;;;2.68;60.91;98676.23;252582;1144;115238;-82
2021/03/22 05:19:59;;;;;;;12.53;7.60;;;;;;;2.68;61.14;98684.12;252812;1151;114336;-82
2021/03/22 05:25:01;;;;;;;17.20;9.50;;;;;;;2.69;61.22;98690.26;252627;1144;114583;-82
2021/03/22 05:30:08;;;;;;;16.60;8.70;;;;;;;2.68;60.97;98694.63;252610;1150;114883;-84
2021/03/22 05:35:17;;;;;;;13.40;8.58;;;;;;;2.69;61.22;98698.99;252340;1144;115047;-83
2021/03/22 05:40:24;;;;;;;15.70;8.85;;;;;;;2.73;61.28;98712.88;252272;1152;114734;-83
2021/03/22 05:45:36;;;;;;;16.18;9.40;;;;;;;2.72;61.16;98721.68;252349;1144;114497;-83
2021/03/22 05:50:55;;;;;;;17.20;8.60;;;;;;;2.73;61.19;98726.86;252526;1151;114794;-85
2021/03/22 05:56:00;;;;;;;14.13;8.93;;;;;;;2.77;61.33;98736.34;249591;1144;114805;-82
2021/03/22 06:01:17;;;;;;;13.58;7.73;;;;;;;2.79;61.18;98741.56;252286;1152;114354;-78
2021/03/22 06:06:34;;;;;;;13.63;7.53;;;;;;;2.86;61.29;98731.70;252569;1144;114668;-77
2021/03/22 06:12:05;;;;;;;14.25;7.15;;;;;;;2.88;61.19;98743.84;252748;1150;115232;-77
2021/03/22 06:17:24;;;;;;;14.10;7.53;;;;;;;2.89;61.14;98750.84;252772;1144;114760;-77
2021/03/22 06:22:41;;;;;;;13.60;6.67;;;;;;;2.93;61.12;98748.95;252583;1151;114664;-78
2021/03/22 06:27:50;;;;;;;28.50;14.67;;;;;;;2.93;60.89;98751.59;252810;1144;115166;-77
2021/03/22 06:33:00;;;;;;;14.87;7.10;;;;;;;3.00;60.85;98753.08;252488;1150;115273;-78
2021/03/22 06:38:02;;;;;;;10.58;6.18;;;;;;;3.01;60.92;98763.52;252587;1144;114647;-82
2021/03/22 06:43:13;;;;;;;12.25;6.88;;;;;;;3.02;60.72;98760.00;252629;1151;115241;-78
2021/03/22 06:48:29;;;;;;;11.83;6.13;;;;;;;3.05;60.73;98762.49;252514;1148;114650;-78
2021/03/22 06:53:36;;;;;;;12.58;6.13;;;;;;;3.07;60.54;98773.83;252686;1151;114580;-77
2021/03/22 06:58:39;;;;;;;12.45;6.00;;;;;;;3.11;60.61;98787.72;252544;1146;114536;-78
2021/03/22 07:03:41;;;;;;;13.60;6.53;;;;;;;3.14;60.43;98792.02;252598;1151;114659;-76
2021/03/22 07:08:44;;;;;;;13.25;6.30;;;;;;;3.18;60.32;98796.23;252783;1144;114789;-76
2021/03/22 07:13:59;;;;;;;17.60;6.38;;;;;;;3.29;61.13;98808.11;252718;1151;114791;-79
2021/03/22 07:19:07;;;;;;;14.83;6.00;;;;;;;4.44;61.60;98795.73;252299;1146;114380;-78
2021/03/22 07:24:18;;;;;;;13.75;5.13;;;;;;;4.38;59.79;98803.92;252352;1144;114865;-78
2021/03/22 07:29:48;;;;;;;14.55;5.00;;;;;;;4.19;59.23;98813.47;252270;1146;114303;-77
2021/03/22 07:35:09;;;;;;;11.53;4.85;;;;;;;4.03;59.13;98823.73;252343;1152;114406;-77
2021/03/22 07:40:26;;;;;;;13.85;5.70;;;;;;;3.95;58.99;98816.14;252774;1151;114881;-77
2021/03/22 07:45:44;;;;;;;11.95;4.65;;;;;;;3.96;59.38;98817.84;252607;1144;114494;-77
2021/03/22 07:51:29;;;;;;;7.87;3.93;;;;;;;4.03;58.89;98824.59;251206;1151;118031;-76
2021/03/22 07:56:38;;;;;;;14.97;4.50;;;;;;;4.12;58.77;98827.80;250105;1152;114251;-76
2021/03/22 08:01:55;;;;;;;9.43;3.43;;;;;;;4.17;58.61;98829.31;252659;1151;114653;-77
2021/03/22 08:07:42;;;;;;;11.28;3.65;;;;;;;4.22;58.27;98829.15;252662;1144;114162;-77
2021/03/22 08:12:59;;;;;;;10.70;3.20;;;;;;;4.29;57.57;98835.89;251911;1151;115702;-76
2021/03/22 08:18:35;;;;;;;7.45;2.70;;;;;;;4.35;57.28;98835.65;250336;1144;114314;-77
2021/03/22 08:23:57;;;;;;;;;;;;;;;4.44;57.32;98840.52;252790;1151;114142;-76
2021/03/22 08:29:04;;;;;;;9.53;2.78;;;;;;;4.55;56.80;98834.81;252307;1144;103040;-77
2021/03/22 08:34:53;;;;;;;6.98;2.78;;;;;;;4.61;56.58;98844.26;251504;1151;114686;-77
2021/03/22 08:40:15;;;;;;;5.60;2.55;;;;;;;4.66;55.96;98844.94;252571;1144;114841;-76
2021/03/22 08:45:27;;;;;;;9.60;2.20;;;;;;;4.68;55.92;98843.08;252516;1151;114765;-76
2021/03/22 08:50:34;;;;;;;6.23;2.40;;;;;;;4.71;55.22;98853.50;252134;1145;114543;-75
2021/03/22 08:55:39;;;;;;;8.07;2.80;;;;;;;4.77;55.01;98844.50;252494;1152;114456;-76
2021/03/22 09:00:44;;;;;;;8.03;2.30;;;;;;;4.87;55.05;98849.31;252491;1144;114762;-76
2021/03/22 09:06:17;;;;;;;8.05;2.58;;;;;;;4.97;55.31;98852.42;252408;1152;114991;-76
2021/03/22 09:11:26;;;;;;;6.33;2.18;;;;;;;5.08;54.77;98852.81;252508;1144;114523;-76
2021/03/22 09:16:41;;;;;;;9.10;3.10;;;;;;;5.17;55.00;98855.07;252530;1152;114470;-76
2021/03/22 09:21:48;;;;;;;13.80;3.00;;;;;;;5.25;54.57;98860.00;252264;1146;115114;-77
2021/03/22 09:26:51;;;;;;;8.30;2.60;;;;;;;5.37;54.97;98855.99;252224;1152;115056;-77
2021/03/22 09:31:53;;;;;;;5.20;1.73;;;;;;;5.52;54.20;98849.17;252494;1144;114672;-77
2021/03/22 09:36:56;;;;;;;7.43;1.93;;;;;;;5.68;54.20;98852.84;248526;1151;115052;-77
2021/03/22 09:42:11;;;;;;;5.10;2.00;;;;;;;5.83;53.90;98849.48;251891;1146;114375;-78
2021/03/22 09:47:14;;;;;;;4.83;1.60;;;;;;;6.00;54.10;98843.46;249751;1152;115251;-75
2021/03/22 09:52:41;;;;;;;5.58;2.03;;;;;;;6.11;53.02;98846.48;252475;1145;114056;-77
2021/03/22 09:57:45;;;;;;;2.73;1.20;;;;;;;6.26;52.99;98851.96;252134;1150;114287;-79
2021/03/22 10:02:49;;;;;;;2.90;1.00;;;;;;;6.38;52.94;98844.28;252641;1144;114352;-78
2021/03/22 10:08:11;;;;;;;2.33;1.00;;;;;;;6.48;51.36;98836.77;252668;1150;114461;-78
2021/03/22 10:13:34;;;;;;;4.10;1.50;;;;;;;6.71;51.66;98834.80;252554;1146;114934;-76
2021/03/22 10:18:46;;;;;;;4.15;1.50;;;;;;;6.89;51.74;98833.86;251657;1144;114871;-77
2021/03/22 10:24:10;;;;;;;3.95;1.10;;;;;;;6.87;50.42;98836.59;252561;1151;115255;-77
2021/03/22 10:29:25;;;;;;;3.33;1.08;;;;;;;6.72;50.21;98837.34;252486;1144;114919;-77
2021/03/22 10:34:41;;;;;;;2.70;1.20;;;;;;;6.66;49.32;98842.97;252588;1151;114946;-77
2021/03/22 10:39:47;;;;;;;3.83;0.80;;;;;;;6.65;48.62;98835.94;252540;1144;114890;-77
2021/03/22 10:44:49;;;;;;;3.33;1.10;;;;;;;6.53;48.84;98836.56;252612;1151;114533;-77
2021/03/22 10:49:52;;;;;;;3.13;1.30;;;;;;;6.39;48.97;98839.88;252604;1144;114328;-79
2021/03/22 10:54:56;;;;;;;3.35;1.08;;;;;;;6.26;48.41;98844.03;252565;1151;114480;-79
2021/03/22 11:00:06;;;;;;;3.00;1.38;;;;;;;6.14;48.57;98869.23;251376;1144;114638;-79
2021/03/22 11:05:15;;;;;;;4.00;1.15;;;;;;;5.87;48.26;98885.39;252751;1151;114503;-79
2021/03/22 11:10:20;;;;;;;4.17;1.20;;;;;;;5.64;49.05;98867.11;250360;1144;114607;-79
2021/03/22 11:15:37;;;;;;;;;;;;;;;5.63;49.92;98857.45;251925;1151;114089;-79
2021/03/22 11:20:49;;;;;;;4.70;1.40;;;;;;;5.70;50.46;98851.82;252361;1144;101854;-80
2021/03/22 11:25:56;;;;;;;3.67;1.30;;;;;;;5.79;49.62;98840.00;252079;1152;114426;-79
2021/03/22 11:31:04;;;;;;;4.55;1.33;;;;;;;6.16;51.27;98857.67;252332;1144;114480;-79
2021/03/22 11:36:19;;;;;;;5.93;1.73;;;;;;;6.54;49.78;98849.69;250013;1144;114540;-80
2021/03/22 11:41:39;;;;;;;2.78;1.28;;;;;;;6.68;49.63;98856.09;252309;1144;115308;-80
2021/03/22 11:46:44;;;;;;;4.45;1.88;;;;;;;6.70;48.90;98860.39;252319;1152;114565;-79
2021/03/22 11:51:50;;;;;;;5.75;2.23;;;;;;;6.59;48.73;98863.56;251798;1144;114405;-79
2021/03/22 11:57:00;;;;;;;4.33;1.98;;;;;;;6.47;48.27;98858.00;252649;1151;114167;-78
2021/03/22 12:02:02;;;;;;;4.13;2.07;;;;;;;6.35;48.45;98859.43;252609;1144;114398;-78
2021/03/22 12:07:11;;;;;;;6.63;1.88;;;;;;;6.25;48.50;98861.68;252427;1144;114416;-78
2021/03/22 12:12:16;;;;;;;8.63;2.30;;;;;;;6.23;48.39;98858.24;252300;1145;114113;-78
2021/03/22 12:17:27;;;;;;;3.55;1.68;;;;;;;6.24;47.66;98852.02;252176;1152;114585;-78
2021/03/22 12:22:29;;;;;;;5.38;2.13;;;;;;;6.29;48.13;98839.45;252373;1144;115288;-78
2021/03/22 12:27:32;;;;;;;7.57;1.90;;;;;;;6.38;48.17;98849.56;252565;1151;114463;-79
2021/03/22 12:32:34;;;;;;;6.45;1.85;;;;;;;6.52;48.89;98850.69;252497;1144;114044;-78
2021/03/22 12:37:39;;;;;;;4.93;1.97;;;;;;;7.31;49.08;98840.56;249301;1144;114127;-81
2021/03/22 12:42:44;;;;;;;3.20;1.90;;;;;;;7.82;48.36;98828.99;252234;1144;114696;-79
2021/03/22 12:47:47;;;;;;;4.90;2.08;;;;;;;8.00;47.70;98823.63;252230;1144;114452;-81
2021/03/22 12:52:53;;;;;;;5.40;2.30;;;;;;;8.03;47.11;98837.56;251163;1144;115763;-78
2021/03/22 12:57:57;;;;;;;5.15;2.00;;;;;;;7.86;46.52;98836.78;250853;1150;114429;-79
2021/03/22 13:03:00;;;;;;;9.13;2.47;;;;;;;7.67;46.11;98840.39;251079;1146;114385;-79
2021/03/22 13:08:04;;;;;;;7.13;2.13;;;;;;;7.55;46.79;98849.01;252310;1152;114521;-79
2021/03/22 13:13:07;;;;;;;5.43;2.40;;;;;;;7.57;47.01;98847.12;252480;1144;114517;-79
2021/03/22 13:18:23;;;;;;;7.23;2.30;;;;;;;8.05;47.23;98840.14;252816;1152;114506;-79
2021/03/22 13:23:28;;;;;;;4.35;2.15;;;;;;;8.44;47.27;98838.88;252312;1144;114456;-79
2021/03/22 13:28:39;;;;;;;8.70;1.70;;;;;;;8.80;46.48;98835.92;250872;1151;114650;-79
2021/03/22 13:33:42;;;;;;;6.50;1.80;;;;;;;8.68;45.91;98839.28;252369;1144;114550;-79
2021/03/22 13:38:45;;;;;;;6.65;2.15;;;;;;;8.48;45.68;98838.61;251403;1152;114616;-79
2021/03/22 13:43:47;;;;;;;4.00;2.20;;;;;;;8.33;44.57;98849.21;250689;1144;114426;-78
2021/03/22 13:48:50;;;;;;;5.17;1.97;;;;;;;8.55;45.43;98843.57;246478;1144;114639;-79
2021/03/22 13:53:54;;;;;;;5.55;1.95;;;;;;;8.74;44.62;98837.13;251096;1144;114911;-79
2021/03/22 13:58:57;;;;;;;5.53;2.03;;;;;;;8.56;44.31;98837.31;251918;1151;114638;-78
2021/03/22 14:03:59;;;;;;;9.05;2.35;;;;;;;8.46;43.87;98837.86;251908;1144;114512;-74
2021/03/22 14:09:02;;;;;;;6.50;3.40;;;;;;;8.24;43.94;98840.81;252737;1151;114965;-76
2021/03/22 14:14:06;;;;;;;6.50;2.40;;;;;;;8.08;43.54;98839.09;252485;1144;114484;-75
2021/03/22 14:19:09;;;;;;;5.47;2.40;;;;;;;7.93;43.59;98838.15;252549;1144;114415;-75
2021/03/22 14:24:11;;;;;;;5.65;2.68;;;;;;;7.86;43.96;98834.98;252676;1144;114115;-75
2021/03/22 14:29:13;;;;;;;7.30;3.25;;;;;;;7.74;43.11;98839.13;252279;1152;114445;-75
2021/03/22 14:34:16;;;;;;;5.55;2.10;;;;;;;7.66;43.97;98851.09;252215;1144;114468;-73
2021/03/22 14:39:20;;;;;;;7.63;2.30;;;;;;;7.55;43.68;98852.51;252516;1150;114108;-75
2021/03/22 14:44:22;;;;;;;5.08;2.20;;;;;;;7.53;44.15;98862.31;252436;1144;115599;-75
2021/03/22 14:49:25;;;;;;;9.95;1.80;;;;;;;7.49;43.58;98867.86;251990;1152;114641;-76
2021/03/22 14:54:27;;;;;;;6.20;1.88;;;;;;;7.31;44.02;98873.17;252490;1144;114402;-72
2021/03/22 14:59:30;;;;;;;10.63;2.68;;;;;;;7.23;44.13;98867.41;252747;1144;114816;-72
2021/03/22 15:04:33;;;;;;;4.18;1.98;;;;;;;7.23;43.47;98870.05;251085;1152;114586;-71
2021/03/22 15:09:35;;;;;;;4.93;2.45;;;;;;;7.15;44.31;98885.47;250765;1151;115519;-80
2021/03/22 15:14:37;;;;;;;6.93;3.33;;;;;;;6.98;44.40;98888.11;251507;1144;114553;-78
2021/03/22 15:19:40;;;;;;;11.30;4.90;;;;;;;6.88;45.07;98900.94;252489;1151;115042;-78
2021/03/22 15:24:43;;;;;;;12.73;4.58;;;;;;;6.77;45.49;98897.97;251894;1144;115417;-82
2021/03/22 15:29:46;;;;;;;9.90;4.35;;;;;;;6.69;45.24;98900.99;252330;1151;114606;-83
2021/03/22 15:34:48;;;;;;;10.13;3.58;;;;;;;6.66;45.83;98902.89;252055;1152;115037;-83
2021/03/22 15:39:51;;;;;;;11.60;3.80;;;;;;;6.68;46.28;98901.90;250412;1146;114628;-84
2021/03/22 15:44:53;;;;;;;12.48;4.15;;;;;;;6.62;46.18;98903.08;252537;1151;115156;-84
2021/03/22 15:49:56;;;;;;;8.63;4.05;;;;;;;6.58;45.83;98903.27;252592;1146;114347;-82
2021/03/22 15:54:58;;;;;;;8.75;4.45;;;;;;;6.54;46.39;98907.86;248757;1151;114682;-79
2021/03/22 16:00:00;;;;;;;11.10;4.05;;;;;;;6.50;46.83;98901.00;249717;1144;115032;-77
2021/03/22 16:05:03;;;;;;;9.70;4.30;;;;;;;6.48;45.95;98920.50;251538;1151;115855;-79
2021/03/22 16:10:06;;;;;;;9.75;4.55;;;;;;;6.49;46.50;98924.85;252550;1146;114768;-79
2021/03/22 16:15:10;;;;;;;7.60;3.60;;;;;;;6.48;46.30;98928.44;252500;1150;114292;-79
2021/03/22 16:20:14;;;;;;;10.25;4.25;;;;;;;6.46;45.77;98940.89;252548;1146;114520;-82
2021/03/22 16:25:33;;;;;;;10.90;3.70;;;;;;;6.35;46.98;98955.46;252125;1152;115057;-83
2021/03/22 16:30:38;;;;;;;8.73;4.05;;;;;;;6.14;47.47;98957.27;252476;1146;114415;-78
2021/03/22 16:35:49;;;;;;;7.65;3.95;;;;;;;5.94;48.39;98965.23;252391;1151;114897;-78
2021/03/22 16:40:54;;;;;;;10.10;4.23;;;;;;;5.76;48.49;98974.80;252376;1146;114628;-78
2021/03/22 16:45:57;;;;;;;;;;;;;;;5.62;48.91;98971.91;252459;1150;114412;-80
2021/03/22 16:51:03;;;;;;;17.00;4.25;;;;;;;5.44;49.69;98966.48;252422;1144;101828;-80
2021/03/22 16:56:08;;;;;;;14.45;3.95;;;;;;;5.31;49.93;98996.09;252105;1152;114489;-80
2021/03/22 17:01:11;;;;;;;13.25;5.48;;;;;;;5.19;50.21;98997.44;251814;1146;115765;-76
2021/03/22 17:06:14;;;;;;;10.83;5.57;;;;;;;5.13;50.01;99003.84;252434;1151;114458;-76
2021/03/22 17:11:16;;;;;;;19.00;8.25;;;;;;;5.07;50.58;99003.23;252506;1144;114593;-77
2021/03/22 17:16:19;;;;;;;22.93;9.65;;;;;;;4.96;50.37;99006.30;252449;1151;114553;-78
2021/03/22 17:21:23;;;;;;;23.33;9.38;;;;;;;4.91;50.09;99010.88;252078;1144;114916;-81
2021/03/22 17:26:26;;;;;;;18.85;9.18;;;;;;;4.87;49.87;99022.47;252497;1150;114791;-82
2021/03/22 17:31:28;;;;;;;19.10;8.75;;;;;;;4.80;50.34;99032.40;252073;1146;115370;-80
2021/03/22 17:36:31;;;;;;;22.30;9.40;;;;;;;4.79;49.94;99043.88;252066;1152;114815;-78
2021/03/22 17:41:33;;;;;;;25.95;11.63;;;;;;;4.77;50.00;99039.56;252407;1146;114696;-78
2021/03/22 17:46:36;;;;;;;24.00;9.60;;;;;;;4.77;49.84;99047.48;252019;1152;114754;-79
2021/03/22 17:51:39;;;;;;;30.23;10.40;;;;;;;4.77;49.89;99055.39;252284;1144;114762;-79
2021/03/22 17:56:41;;;;;;;25.18;9.90;;;;;;;4.76;50.33;99067.71;252521;1150;115233;-80
2021/03/22 18:01:44;;;;;;;24.28;9.40;;;;;;;4.74;50.03;99069.53;252333;1146;115101;-79
2021/03/22 18:06:46;;;;;;;18.23;7.97;;;;;;;4.70;50.02;99078.48;252210;1151;115543;-78
2021/03/22 18:11:49;;;;;;;23.15;8.55;;;;;;;4.63;49.88;99071.72;251975;1146;114594;-80
2021/03/22 18:16:51;;;;;;;19.53;9.30;;;;;;;4.57;50.01;99087.76;252094;1152;114428;-77
2021/03/22 18:21:58;;;;;;;21.85;10.55;;;;;;;4.59;50.55;99096.48;251965;1145;115276;-76
2021/03/22 18:27:00;;;;;;;24.87;10.70;;;;;;;4.54;50.57;99093.99;252261;1150;115779;-76
2021/03/22 18:32:05;;;;;;;24.90;12.03;;;;;;;4.46;51.00;99107.45;251936;1145;114957;-76
2021/03/22 18:37:08;;;;;;;28.18;12.25;;;;;;;4.38;50.64;99114.79;252119;1152;115534;-76
2021/03/22 18:42:10;;;;;;;28.70;13.48;;;;;;;4.30;50.65;99122.09;252234;1144;115183;-75
2021/03/22 18:47:12;;;;;;;32.20;14.53;;;;;;;4.23;50.95;99131.97;252150;1151;115918;-76
2021/03/22 18:52:15;;;;;;;36.50;16.65;;;;;;;4.18;51.24;99138.34;252463;1144;115800;-76
2021/03/22 18:57:18;;;;;;;38.53;18.08;;;;;;;4.14;50.86;99137.55;252427;1150;115124;-75
2021/03/22 19:02:20;;;;;;;35.37;17.37;;;;;;;4.12;50.83;99143.81;252279;1144;116158;-75
2021/03/22 19:07:23;;;;;;;40.10;17.28;;;;;;;4.06;50.94;99151.91;251004;1151;114893;-79
2021/03/22 19:12:26;;;;;;;32.77;16.63;;;;;;;4.01;51.24;99157.34;252079;1146;115106;-77
2021/03/22 19:17:28;;;;;;;32.67;15.57;;;;;;;3.95;51.52;99154.91;252141;1152;115043;-76
2021/03/22 19:22:31;;;;;;;29.45;13.98;;;;;;;3.92;51.71;99160.27;252363;1144;115186;-77
2021/03/22 19:27:34;;;;;;;27.57;13.30;;;;;;;3.90;51.80;99160.30;252319;1151;114842;-79
2021/03/22 19:32:40;;;;;;;28.00;12.15;;;;;;;3.96;51.68;99170.64;252282;1146;115058;-76
2021/03/22 19:37:43;;;;;;;27.10;13.65;;;;;;;3.96;51.83;99175.91;252329;1151;116081;-79
2021/03/22 19:42:46;;;;;;;32.05;14.95;;;;;;;3.95;51.89;99175.97;252321;1144;115532;-80
2021/03/22 19:47:49;;;;;;;30.87;14.53;;;;;;;3.96;51.98;99183.80;252386;1151;114923;-80
2021/03/22 19:52:53;;;;;;;33.30;15.75;;;;;;;3.93;51.79;99185.67;252282;1145;115200;-79
2021/03/22 19:57:57;;;;;;;38.30;17.37;;;;;;;3.87;51.88;99186.72;252315;1151;115139;-77
2021/03/22 20:03:05;;;;;;;44.57;19.70;;;;;;;3.75;52.00;99187.14;252297;1146;114815;-76
2021/03/22 20:08:12;;;;;;;43.23;19.87;;;;;;;3.70;51.95;99195.20;252322;1149;115060;-77
2021/03/22 20:13:19;;;;;;;52.83;24.28;;;;;;;3.68;52.36;99197.00;252330;1144;115349;-76
2021/03/22 20:18:24;;;;;;;50.17;22.07;;;;;;;3.73;52.37;99204.73;252236;1150;115815;-78
2021/03/22 20:23:32;;;;;;;49.55;23.28;;;;;;;3.72;52.40;99200.39;252344;1144;115721;-76
2021/03/22 20:28:36;;;;;;;56.45;25.15;;;;;;;3.65;52.42;99201.50;252429;1151;115232;-73
2021/03/22 20:33:41;;;;;;;55.68;22.55;;;;;;;3.57;52.55;99209.64;252348;1144;115480;-77
2021/03/22 20:38:44;;;;;;;53.63;24.13;;;;;;;3.51;52.77;99209.82;252370;1151;114989;-74
2021/03/22 20:43:47;;;;;;;53.63;24.03;;;;;;;3.47;52.77;99206.42;252527;1144;114951;-76
2021/03/22 20:48:50;;;;;;;49.93;22.90;;;;;;;3.44;52.86;99214.41;252360;1151;115882;-77
2021/03/22 20:53:53;;;;;;;48.30;22.57;;;;;;;3.39;53.01;99218.08;252082;1144;115849;-76
2021/03/22 20:58:56;;;;;;;46.40;21.75;;;;;;;3.34;52.95;99217.37;252157;1152;115155;-78
2021/03/22 21:03:58;;;;;;;49.67;22.13;;;;;;;3.29;53.11;99215.73;252337;1144;116583;-78
2021/03/22 21:09:01;;;;;;;52.73;22.38;;;;;;;3.25;53.06;99207.97;252338;1150;115229;-84
2021/03/22 21:14:03;;;;;;;47.95;20.65;;;;;;;3.20;53.37;99215.14;252602;1144;114793;-85
2021/03/22 21:19:06;;;;;;;47.95;22.40;;;;;;;3.16;53.55;99210.86;252165;1152;116329;-87
2021/03/22 21:24:08;;;;;;;53.83;22.88;;;;;;;3.14;53.38;99220.58;251842;1144;114850;-86
2021/03/22 21:29:11;;;;;;;51.35;22.75;;;;;;;3.17;53.63;99225.75;252412;1151;115074;-87
2021/03/22 21:34:13;;;;;;;50.75;21.23;;;;;;;3.18;53.42;99220.43;252273;1144;114794;-87
2021/03/22 21:39:16;;;;;;;47.23;21.43;;;;;;;3.13;53.60;99214.46;251166;1144;115413;-90
2021/03/22 21:44:18;;;;;;;44.80;20.13;;;;;;;3.11;53.67;99216.26;252295;1144;114749;-88
2021/03/22 21:49:24;;;;;;;44.73;21.37;;;;;;;3.09;53.88;99220.69;252506;1150;114758;-87
2021/03/22 21:55:10;;;;;;;49.35;22.13;;;;;;;3.07;53.83;99220.75;248058;1153;102929;-69
2021/03/22 22:00:18;;;;;;;44.08;20.05;;;;;;;3.08;53.85;99230.34;248487;1159;114731;-70
2021/03/22 22:05:24;;;;;;;46.08;20.85;;;;;;;3.08;54.18;99230.34;248589;1159;114822;-70
2021/03/22 22:10:27;;;;;;;45.88;20.15;;;;;;;3.08;54.06;99229.49;248548;1154;114297;-71
2021/03/22 22:15:34;;;;;;;50.13;21.95;;;;;;;3.09;54.29;99228.58;248540;1154;114380;-68
2021/03/22 22:20:39;;;;;;;58.55;23.65;;;;;;;3.10;54.24;99224.20;248640;1153;114219;-68
2021/03/22 22:25:42;;;;;;;70.00;28.93;;;;;;;3.10;54.23;99230.32;248631;1154;114467;-68
2021/03/22 22:30:49;;;;;;;64.78;28.00;;;;;;;3.12;54.01;99225.86;248630;1154;114352;-66
2021/03/22 22:35:54;;;;;;;83.73;34.10;;;;;;;3.06;54.24;99240.06;248573;1153;114521;-70
2021/03/22 22:41:05;;;;;;;177.35;67.85;;;;;;;3.03;54.40;99241.92;248529;1153;114371;-66
2021/03/22 22:46:09;;;;;;;175.85;67.90;;;;;;;3.03;54.59;99247.18;248538;1154;114515;-70
2021/03/22 22:51:12;;;;;;;143.15;54.95;;;;;;;3.02;54.50;99253.31;248654;1154;115045;-71
2021/03/22 22:56:17;;;;;;;107.80;42.98;;;;;;;3.00;54.65;99257.78;246706;1154;114651;-70
2021/03/22 23:01:20;;;;;;;84.73;36.93;;;;;;;2.95;54.77;99250.00;248711;1155;114672;-70
2021/03/22 23:06:28;;;;;;;85.43;35.55;;;;;;;2.94;54.69;99255.31;248707;1153;115665;-75
2021/03/22 23:11:33;;;;;;;68.70;31.68;;;;;;;3.01;55.06;99256.86;248733;1154;114468;-68
2021/03/22 23:16:37;;;;;;;73.18;34.48;;;;;;;2.99;54.88;99256.03;248560;1159;114470;-68
2021/03/22 23:21:49;;;;;;;77.43;33.48;;;;;;;2.97;54.94;99258.72;248692;1154;114362;-69
2021/03/22 23:26:52;;;;;;;64.27;31.50;;;;;;;2.97;55.29;99260.48;248700;1153;203148;-69
2021/03/22 23:31:56;;;;;;;76.53;34.15;;;;;;;2.96;55.16;99266.66;248694;1152;114657;-69
2021/03/22 23:36:59;;;;;;;69.15;34.18;;;;;;;2.92;55.09;99270.25;248710;1153;114426;-70